createdAt,value
2023-01-03T00:01:57.413Z,52.42
2023-01-03T00:04:25.878Z,52.44
2023-01-03T00:06:54.421Z,52.51
2023-01-03T00:09:24.401Z,52.42
2023-01-03T00:12:31.335Z,52.46
2023-01-03T00:15:00.192Z,52.49
2023-01-03T00:17:28.844Z,52.64
2023-01-03T00:19:56.858Z,52.84
2023-01-03T00:22:24.730Z,52.77
2023-01-03T00:24:53.647Z,52.94
2023-01-03T00:27:21.478Z,52.85
2023-01-03T00:29:50.216Z,52.88
2023-01-03T00:32:18.655Z,53.01
2023-01-03T00:34:47.471Z,52.78
2023-01-03T00:37:15.841Z,52.73
2023-01-03T00:39:43.960Z,52.86
2023-01-03T00:42:11.898Z,52.89
2023-01-03T00:44:39.754Z,52.90
2023-01-03T00:47:07.496Z,52.96
2023-01-03T00:49:35.209Z,52.94
2023-01-03T00:52:03.098Z,52.95
2023-01-03T00:54:30.894Z,53.00
2023-01-03T00:56:58.697Z,52.93
2023-01-03T00:59:26.736Z,53.03
2023-01-03T01:01:57.051Z,52.91
2023-01-03T01:04:29.072Z,53.04
2023-01-03T01:07:02.053Z,53.05
2023-01-03T01:09:36.412Z,53.23
2023-01-03T01:12:06.875Z,53.17
2023-01-03T01:14:35.342Z,53.44
2023-01-03T01:17:08.144Z,53.32
2023-01-03T01:19:41.985Z,53.27
2023-01-03T01:22:11.836Z,53.29
2023-01-03T01:24:40.483Z,53.38
2023-01-03T01:27:08.200Z,53.39
2023-01-03T01:29:38.139Z,53.29
2023-01-03T01:32:06.745Z,53.38
2023-01-03T01:34:34.492Z,53.41
2023-01-03T01:37:02.707Z,53.33
2023-01-03T01:39:30.750Z,53.35
2023-01-03T01:42:22.307Z,53.29
2023-01-03T01:45:12.958Z,53.09
2023-01-03T01:47:54.232Z,53.44
2023-01-03T01:50:37.352Z,53.06
2023-01-03T01:53:05.873Z,53.09
2023-01-03T01:55:53.182Z,53.01
2023-01-03T01:58:25.908Z,53.08
2023-01-03T02:00:54.282Z,53.13
2023-01-03T02:03:22.217Z,53.17
2023-01-03T02:05:54.551Z,53.17
2023-01-03T02:08:23.200Z,53.26
2023-01-03T02:11:14.954Z,53.22
2023-01-03T02:14:29.563Z,53.39
2023-01-03T02:17:15.401Z,53.47
2023-01-03T02:20:16.751Z,53.49
2023-01-03T02:23:13.840Z,53.44
2023-01-03T02:25:47.642Z,53.35
2023-01-03T02:28:36.386Z,53.35
2023-01-03T02:31:41.586Z,53.23
2023-01-03T02:35:07.890Z,53.29
2023-01-03T02:37:57.475Z,53.27
2023-01-03T02:40:40.504Z,53.32
2023-01-03T02:43:22.374Z,53.36
2023-01-03T02:46:21.796Z,53.07
2023-01-03T02:49:15.281Z,53.10
2023-01-03T02:51:53.566Z,53.13
2023-01-03T02:54:58.927Z,52.96
2023-01-03T02:57:44.120Z,53.25
2023-01-03T03:00:20.470Z,53.34
2023-01-03T03:02:53.556Z,53.42
2023-01-03T03:05:42.405Z,53.33
2023-01-03T03:08:10.273Z,53.44
2023-01-03T03:10:59.703Z,53.26
2023-01-03T03:13:40.749Z,53.13
2023-01-03T03:16:49.301Z,53.34
2023-01-03T03:19:49.048Z,53.35
2023-01-03T03:22:43.493Z,53.56
2023-01-03T03:25:43.281Z,53.33
2023-01-03T03:28:36.020Z,53.27
2023-01-03T03:31:16.230Z,53.46
2023-01-03T03:34:14.757Z,53.41
2023-01-03T03:37:00.531Z,53.43
2023-01-03T03:39:49.669Z,53.42
2023-01-03T03:43:01.404Z,53.26
2023-01-03T03:46:17.310Z,53.28
2023-01-03T03:49:22.152Z,53.55
2023-01-03T03:51:51.112Z,53.51
2023-01-03T03:54:22.381Z,53.39
2023-01-03T03:57:15.199Z,53.24
2023-01-03T03:59:49.753Z,53.49
2023-01-03T04:02:19.386Z,53.38
2023-01-03T04:04:52.476Z,53.32
2023-01-03T04:07:20.419Z,53.50
2023-01-03T04:09:48.048Z,53.45
2023-01-03T04:12:15.754Z,53.14
2023-01-03T04:14:43.430Z,53.43
2023-01-03T04:17:11.246Z,53.36
2023-01-03T04:19:38.986Z,53.23
2023-01-03T04:22:07.045Z,53.20
2023-01-03T04:24:34.746Z,53.15
2023-01-03T04:27:02.547Z,53.44
2023-01-03T04:29:34.122Z,53.31
2023-01-03T04:32:08.243Z,53.51
2023-01-03T04:34:36.225Z,53.68
2023-01-03T04:37:04.061Z,53.52
2023-01-03T04:39:31.779Z,53.50
2023-01-03T04:42:01.381Z,53.59
2023-01-03T04:44:29.340Z,53.50
2023-01-03T04:46:57.045Z,53.36
2023-01-03T04:49:24.794Z,53.57
2023-01-03T04:51:52.538Z,53.58
2023-01-03T04:54:20.233Z,53.37
2023-01-03T04:56:48.065Z,53.62
2023-01-03T04:59:15.690Z,53.60
2023-01-03T05:01:52.114Z,53.63
2023-01-03T05:04:20.470Z,53.56
2023-01-03T05:06:48.332Z,53.79
2023-01-03T05:09:16.060Z,53.79
2023-01-03T05:11:44.088Z,54.03
2023-01-03T05:14:14.513Z,53.75
2023-01-03T05:16:42.770Z,53.85
2023-01-03T05:19:10.849Z,53.92
2023-01-03T05:21:59.025Z,53.91
2023-01-03T05:24:45.485Z,53.91
2023-01-03T05:27:13.283Z,54.06
2023-01-03T05:29:41.116Z,53.89
2023-01-03T05:32:09.036Z,53.81
2023-01-03T05:34:56.691Z,53.98
2023-01-03T05:37:44.316Z,54.03
2023-01-03T05:40:36.175Z,53.69
2023-01-03T05:43:07.209Z,53.86
2023-01-03T05:45:39.261Z,53.75
2023-01-03T05:48:08.471Z,54.20
2023-01-03T05:50:36.293Z,54.08
2023-01-03T05:53:04.664Z,54.17
2023-01-03T05:55:32.442Z,54.06
2023-01-03T05:58:00.134Z,54.00
2023-01-03T06:00:28.671Z,53.70
2023-01-03T06:02:56.562Z,53.95
2023-01-03T06:05:24.426Z,53.74
2023-01-03T06:07:52.164Z,54.10
2023-01-03T06:10:20.049Z,54.16
2023-01-03T06:12:47.891Z,54.03
2023-01-03T06:15:15.626Z,53.83
2023-01-03T06:17:57.434Z,54.01
2023-01-03T06:20:27.443Z,54.07
2023-01-03T06:22:55.782Z,54.14
2023-01-03T06:25:23.661Z,53.98
2023-01-03T06:27:51.376Z,54.08
2023-01-03T06:30:19.332Z,54.15
2023-01-03T06:32:47.063Z,54.14
2023-01-03T06:35:15.025Z,53.86
2023-01-03T06:37:42.762Z,54.07
2023-01-03T06:40:11.205Z,53.84
2023-01-03T06:42:39.463Z,54.11
2023-01-03T06:45:27.177Z,53.96
2023-01-03T06:48:13.749Z,54.18
2023-01-03T06:51:02.109Z,54.26
2023-01-03T06:53:37.833Z,54.00
2023-01-03T06:56:06.236Z,53.74
2023-01-03T06:58:34.479Z,54.04
2023-01-03T07:01:04.129Z,53.85
2023-01-03T07:03:33.254Z,53.86
2023-01-03T07:06:01.127Z,54.08
2023-01-03T07:08:28.816Z,54.00
2023-01-03T07:10:56.699Z,53.89
2023-01-03T07:13:43.133Z,53.95
2023-01-03T07:16:19.606Z,54.11
2023-01-03T07:18:54.718Z,54.00
2023-01-03T07:21:28.789Z,54.04
2023-01-03T07:23:59.170Z,54.18
2023-01-03T07:26:27.382Z,54.16
2023-01-03T07:28:55.155Z,54.03
2023-01-03T07:31:23.204Z,54.00
2023-01-03T07:33:53.081Z,54.21
2023-01-03T07:36:21.690Z,54.04
2023-01-03T07:38:49.651Z,54.24
2023-01-03T07:41:18.041Z,54.05
2023-01-03T07:43:49.016Z,54.04
2023-01-03T07:46:23.737Z,54.32
2023-01-03T07:48:55.394Z,54.14
2023-01-03T07:51:23.062Z,54.42
2023-01-03T07:53:53.465Z,54.31
2023-01-03T07:56:24.978Z,54.39
2023-01-03T07:58:52.996Z,54.56
2023-01-03T08:01:25.361Z,54.37
2023-01-03T08:03:53.969Z,54.26
2023-01-03T08:06:24.221Z,54.50
2023-01-03T08:09:12.653Z,54.24
2023-01-03T08:11:59.185Z,54.26
2023-01-03T08:14:27.640Z,54.45
2023-01-03T08:16:56.949Z,54.51
2023-01-03T08:19:24.973Z,54.56
2023-01-03T08:21:53.054Z,54.46
2023-01-03T08:24:21.004Z,54.55
2023-01-03T08:26:48.845Z,54.64
2023-01-03T08:29:16.805Z,54.59
2023-01-03T08:31:53.806Z,54.76
2023-01-03T08:34:29.394Z,54.71
2023-01-03T08:37:03.578Z,54.57
2023-01-03T08:39:39.435Z,54.74
2023-01-03T08:42:09.528Z,54.80
2023-01-03T08:44:38.517Z,54.52
2023-01-03T08:47:08.521Z,54.71
2023-01-03T08:49:38.018Z,54.89
2023-01-03T08:52:06.168Z,55.14
2023-01-03T08:54:34.010Z,55.26
2023-01-03T08:57:01.675Z,55.05
2023-01-03T08:59:29.341Z,55.32
2023-01-03T09:02:01.320Z,55.01
2023-01-03T09:04:29.365Z,55.37
2023-01-03T09:06:57.398Z,55.11
2023-01-03T09:09:25.187Z,55.24
2023-01-03T09:11:54.195Z,54.95
2023-01-03T09:14:22.081Z,55.09
2023-01-03T09:16:50.172Z,55.10
2023-01-03T09:19:18.178Z,55.10
2023-01-03T09:21:45.995Z,55.01
2023-01-03T09:24:13.888Z,55.29
2023-01-03T09:26:41.876Z,55.46
2023-01-03T09:29:09.555Z,55.58
2023-01-03T09:31:40.055Z,55.73
2023-01-03T09:34:08.316Z,55.96
2023-01-03T09:36:38.380Z,55.96
2023-01-03T09:39:06.607Z,56.25
2023-01-03T09:41:34.424Z,56.04
2023-01-03T09:44:06.818Z,56.10
2023-01-03T09:46:35.641Z,56.41
2023-01-03T09:49:06.828Z,56.47
2023-01-03T09:52:01.895Z,56.32
2023-01-03T09:55:00.792Z,56.23
2023-01-03T09:57:54.856Z,56.69
2023-01-03T10:01:03.866Z,56.65
2023-01-03T10:03:51.498Z,56.50
2023-01-03T10:06:33.601Z,56.56
2023-01-03T10:09:28.474Z,56.20
2023-01-03T10:12:17.586Z,56.22
2023-01-03T10:15:11.741Z,55.95
2023-01-03T10:18:09.173Z,56.27
2023-01-03T10:20:55.862Z,56.21
2023-01-03T10:23:23.971Z,56.23
2023-01-03T10:25:52.226Z,55.99
2023-01-03T10:28:25.361Z,55.92
2023-01-03T10:31:14.076Z,55.93
2023-01-03T10:33:47.622Z,56.12
2023-01-03T10:36:18.224Z,55.87
2023-01-03T10:38:52.625Z,56.13
2023-01-03T10:41:45.665Z,55.78
2023-01-03T10:44:42.857Z,55.98
2023-01-03T10:47:17.446Z,56.09
2023-01-03T10:49:47.354Z,55.95
2023-01-03T10:52:20.170Z,56.15
2023-01-03T10:54:55.760Z,55.89
2023-01-03T10:57:39.230Z,55.67
2023-01-03T11:00:23.096Z,55.83
2023-01-03T11:02:51.649Z,55.91
2023-01-03T11:05:26.464Z,56.07
2023-01-03T11:08:01.969Z,56.03
2023-01-03T11:10:39.967Z,55.90
2023-01-03T11:13:23.593Z,55.95
2023-01-03T11:15:57.657Z,55.84
2023-01-03T11:18:30.088Z,56.04
2023-01-03T11:21:23.403Z,55.62
2023-01-03T11:24:30.515Z,55.81
2023-01-03T11:27:21.473Z,55.74
2023-01-03T11:30:15.901Z,55.78
2023-01-03T11:33:13.833Z,55.53
2023-01-03T11:36:16.242Z,55.42
2023-01-03T11:39:15.638Z,55.59
2023-01-03T11:41:58.422Z,55.67
2023-01-03T11:45:11.217Z,55.53
2023-01-03T11:48:11.383Z,55.63
2023-01-03T11:51:16.868Z,55.48
2023-01-03T11:54:11.812Z,55.47
2023-01-03T11:56:47.166Z,55.44
2023-01-03T11:59:36.961Z,55.28
2023-01-03T12:02:56.036Z,55.33
2023-01-03T12:05:45.149Z,55.32
2023-01-03T12:08:28.199Z,54.93
2023-01-03T12:11:15.430Z,54.93
2023-01-03T12:13:59.463Z,54.89
2023-01-03T12:17:00.832Z,54.79
2023-01-03T12:20:11.073Z,55.00
2023-01-03T12:23:04.835Z,54.87
2023-01-03T12:25:38.141Z,55.06
2023-01-03T12:28:11.826Z,54.81
2023-01-03T12:30:48.347Z,54.70
2023-01-03T12:33:46.707Z,54.42
2023-01-03T12:36:48.105Z,54.33
2023-01-03T12:39:46.563Z,54.29
2023-01-03T12:42:33.083Z,54.06
2023-01-03T12:45:11.907Z,54.03
2023-01-03T12:47:49.851Z,53.79
2023-01-03T12:50:28.414Z,53.95
2023-01-03T12:53:15.575Z,53.70
2023-01-03T12:56:19.886Z,53.67
2023-01-03T12:59:10.848Z,53.35
2023-01-03T13:01:58.991Z,53.42
2023-01-03T13:04:36.399Z,53.21
2023-01-03T13:07:19.942Z,53.03
2023-01-03T13:10:17.038Z,52.83
2023-01-03T13:12:54.729Z,52.60
2023-01-03T13:15:36.651Z,52.34
2023-01-03T13:18:23.722Z,52.03
2023-01-03T13:20:55.392Z,51.87
2023-01-03T13:23:42.293Z,51.83
2023-01-03T13:26:27.624Z,51.90
2023-01-03T13:29:33.732Z,51.70
2023-01-03T13:32:24.095Z,51.65
2023-01-03T13:34:54.665Z,51.58
2023-01-03T13:37:45.427Z,51.34
2023-01-03T13:41:08.092Z,51.13
2023-01-03T13:43:39.492Z,50.93
2023-01-03T13:46:27.662Z,50.91
2023-01-03T13:49:08.041Z,50.91
2023-01-03T13:51:54.936Z,50.68
2023-01-03T13:54:24.909Z,50.69
2023-01-03T13:56:52.785Z,50.53
2023-01-03T13:59:42.848Z,50.37
2023-01-03T14:02:13.379Z,50.69
2023-01-03T14:05:20.948Z,50.39
2023-01-03T14:08:24.131Z,50.42
2023-01-03T14:11:16.589Z,50.42
2023-01-03T14:13:49.779Z,50.66
2023-01-03T14:16:23.721Z,50.54
2023-01-03T14:19:04.066Z,50.38
2023-01-03T14:21:45.160Z,50.30
2023-01-03T14:24:34.996Z,50.43
2023-01-03T14:27:17.398Z,50.42
2023-01-03T14:29:53.290Z,50.23
2023-01-03T14:32:33.698Z,50.15
2023-01-03T14:35:03.859Z,50.42
2023-01-03T14:37:34.893Z,50.35
2023-01-03T14:40:07.172Z,50.31
2023-01-03T14:42:34.820Z,50.23
2023-01-03T14:45:07.002Z,50.17
2023-01-03T14:47:39.136Z,50.22
2023-01-03T14:50:15.764Z,50.01
2023-01-03T14:52:47.214Z,50.10
2023-01-03T14:55:18.925Z,49.99
2023-01-03T14:57:49.394Z,49.86
2023-01-03T15:00:28.279Z,49.92
2023-01-03T15:03:01.901Z,50.01
2023-01-03T15:05:38.561Z,49.93
2023-01-03T15:08:15.139Z,49.78
2023-01-03T15:10:51.288Z,49.72
2023-01-03T15:13:50.319Z,49.91
2023-01-03T15:16:31.587Z,49.98
2023-01-03T15:19:06.023Z,49.99
2023-01-03T15:21:34.038Z,50.03
2023-01-03T15:24:02.123Z,49.96
2023-01-03T15:26:42.020Z,49.88
2023-01-03T15:29:17.207Z,49.96
2023-01-03T15:31:53.917Z,49.98
2023-01-03T15:34:30.766Z,49.93
2023-01-03T15:37:22.681Z,49.95
2023-01-03T15:39:55.667Z,50.00
2023-01-03T15:42:54.509Z,50.22
2023-01-03T15:45:38.987Z,50.07
2023-01-03T15:48:14.571Z,50.08
2023-01-03T15:50:51.753Z,50.00
2023-01-03T15:53:26.914Z,50.11
2023-01-03T15:56:03.586Z,49.99
2023-01-03T15:58:32.577Z,50.16
2023-01-03T16:01:01.057Z,50.16
2023-01-03T16:03:34.181Z,49.98
2023-01-03T16:06:02.753Z,50.07
2023-01-03T16:08:38.174Z,50.17
2023-01-03T16:11:18.431Z,49.98
2023-01-03T16:14:02.426Z,50.06
2023-01-03T16:16:38.140Z,50.21
2023-01-03T16:19:07.312Z,50.22
2023-01-03T16:21:35.081Z,50.28
2023-01-03T16:24:02.880Z,50.26
2023-01-03T16:26:30.668Z,50.45
2023-01-03T16:28:59.433Z,50.43
2023-01-03T16:31:32.838Z,50.59
2023-01-03T16:34:05.519Z,50.59
2023-01-03T16:36:40.179Z,50.68
2023-01-03T16:39:23.373Z,50.65
2023-01-03T16:42:13.741Z,50.71
2023-01-03T16:44:50.309Z,50.87
2023-01-03T16:47:24.715Z,50.99
2023-01-03T16:50:03.809Z,50.91
2023-01-03T16:52:38.551Z,50.95
2023-01-03T16:55:32.207Z,50.98
2023-01-03T16:58:00.551Z,51.07
2023-01-03T17:00:32.121Z,50.91
2023-01-03T17:03:00.922Z,51.03
2023-01-03T17:05:33.815Z,51.20
2023-01-03T17:08:16.050Z,51.12
2023-01-03T17:10:47.797Z,51.28
2023-01-03T17:13:39.183Z,51.28
2023-01-03T17:16:19.510Z,51.41
2023-01-03T17:18:48.830Z,51.39
2023-01-03T17:21:34.922Z,51.18
2023-01-03T17:24:07.601Z,51.09
2023-01-03T17:26:36.139Z,51.12
2023-01-03T17:29:06.959Z,51.25
2023-01-03T17:31:34.747Z,51.48
2023-01-03T17:34:26.743Z,51.24
2023-01-03T17:36:56.195Z,51.24
2023-01-03T17:39:25.070Z,51.43
2023-01-03T17:42:12.099Z,51.27
2023-01-03T17:44:40.336Z,51.39
2023-01-03T17:47:40.048Z,51.40
2023-01-03T17:50:09.858Z,51.79
2023-01-03T17:52:38.660Z,51.77
2023-01-03T17:55:24.269Z,51.75
2023-01-03T17:57:52.666Z,51.97
2023-01-03T18:00:25.389Z,51.70
2023-01-03T18:02:56.155Z,51.76
2023-01-03T18:05:28.547Z,51.84
2023-01-03T18:07:59.557Z,51.89
2023-01-03T18:10:47.912Z,51.83
2023-01-03T18:13:33.466Z,52.03
2023-01-03T18:16:01.651Z,52.15
2023-01-03T18:18:30.564Z,52.50
2023-01-03T18:20:59.112Z,52.44
2023-01-03T18:23:37.835Z,52.43
2023-01-03T18:26:10.436Z,52.45
2023-01-03T18:28:38.241Z,52.70
2023-01-03T18:31:07.321Z,52.57
2023-01-03T18:33:35.243Z,52.78
2023-01-03T18:36:03.111Z,52.58
2023-01-03T18:38:38.081Z,52.48
2023-01-03T18:41:06.446Z,52.58
2023-01-03T18:43:34.457Z,52.51
2023-01-03T18:46:02.329Z,52.54
2023-01-03T18:48:30.278Z,52.29
2023-01-03T18:50:59.931Z,52.30
2023-01-03T18:53:34.022Z,52.24
2023-01-03T18:56:02.777Z,52.45
2023-01-03T18:58:37.688Z,52.37
2023-01-03T19:01:07.419Z,52.40
2023-01-03T19:03:39.573Z,52.48
2023-01-03T19:06:20.269Z,52.57
2023-01-03T19:08:48.683Z,52.58
2023-01-03T19:11:23.093Z,52.61
2023-01-03T19:13:54.788Z,52.72
2023-01-03T19:16:26.472Z,52.63
2023-01-03T19:18:55.565Z,52.93
2023-01-03T19:21:24.478Z,52.86
2023-01-03T19:24:05.606Z,52.74
2023-01-03T19:26:38.524Z,52.66
2023-01-03T19:29:16.781Z,52.70
2023-01-03T19:31:47.400Z,52.61
2023-01-03T19:34:20.987Z,52.73
2023-01-03T19:36:49.434Z,52.83
2023-01-03T19:39:24.746Z,52.73
2023-01-03T19:42:18.317Z,52.97
2023-01-03T19:44:48.417Z,52.94
2023-01-03T19:47:19.938Z,52.83
2023-01-03T19:49:48.098Z,52.98
2023-01-03T19:52:17.028Z,53.02
2023-01-03T19:54:45.371Z,52.76
2023-01-03T19:57:30.141Z,52.90
2023-01-03T20:00:00.491Z,52.85
2023-01-03T20:02:39.665Z,52.51
2023-01-03T20:05:24.784Z,52.32
2023-01-03T20:07:53.603Z,52.57
2023-01-03T20:10:24.616Z,52.48
2023-01-03T20:12:55.659Z,52.51
2023-01-03T20:15:28.301Z,52.38
2023-01-03T20:17:56.677Z,52.53
2023-01-03T20:20:29.531Z,52.68
2023-01-03T20:23:07.597Z,52.69
2023-01-03T20:25:37.247Z,52.81
2023-01-03T20:28:05.800Z,52.65
2023-01-03T20:30:34.451Z,52.74
2023-01-03T20:33:02.209Z,52.42
2023-01-03T20:38:24.900Z,52.34
2023-01-03T20:40:56.553Z,52.71
2023-01-03T20:43:24.957Z,52.62
2023-01-03T20:45:58.105Z,52.79
2023-01-03T20:48:27.049Z,52.69
2023-01-03T20:50:55.245Z,52.70
2023-01-03T20:53:26.308Z,52.61
2023-01-03T20:55:54.502Z,52.53
2023-01-03T20:58:25.762Z,52.38
2023-01-03T21:01:02.083Z,52.33
2023-01-03T21:03:37.060Z,52.38
2023-01-03T21:06:21.708Z,52.31
2023-01-03T21:08:56.250Z,52.45
2023-01-03T21:11:31.285Z,52.18
2023-01-03T21:14:00.867Z,52.42
2023-01-03T21:16:41.718Z,52.29
2023-01-03T21:19:19.153Z,52.22
2023-01-03T21:21:55.191Z,52.18
2023-01-03T21:24:25.872Z,52.41
2023-01-03T21:26:54.536Z,52.51
2023-01-03T21:29:24.999Z,52.54
2023-01-03T21:31:54.187Z,52.51
2023-01-03T21:34:23.802Z,52.56
2023-01-03T21:36:56.679Z,52.53
2023-01-03T21:39:28.111Z,52.45
2023-01-03T21:42:16.476Z,52.61
2023-01-03T21:44:46.406Z,52.79
2023-01-03T21:47:24.382Z,52.77
2023-01-03T21:50:45.046Z,52.57
2023-01-03T21:53:18.499Z,52.89
2023-01-03T21:55:47.953Z,52.84
2023-01-03T21:58:20.222Z,52.86
2023-01-03T22:00:48.359Z,52.77
2023-01-03T22:03:46.511Z,52.68
2023-01-03T22:06:17.183Z,52.64
2023-01-03T22:08:46.932Z,52.28
2023-01-03T22:11:15.514Z,51.94
2023-01-03T22:13:43.739Z,52.20
2023-01-03T22:16:11.945Z,52.47
2023-01-03T22:18:44.742Z,52.18
2023-01-03T22:21:13.918Z,52.30
2023-01-03T22:23:43.056Z,52.29
2023-01-03T22:26:17.775Z,52.46
2023-01-03T22:28:47.217Z,52.27
2023-01-03T22:31:23.896Z,52.67
2023-01-03T22:33:52.897Z,52.74
2023-01-03T22:36:20.870Z,52.57
2023-01-03T22:38:49.030Z,52.63
2023-01-03T22:41:18.922Z,52.94
2023-01-03T22:43:52.574Z,52.64
2023-01-03T22:46:23.123Z,52.65
2023-01-03T22:48:51.369Z,52.64
2023-01-03T22:51:22.924Z,52.54
2023-01-03T22:53:51.905Z,52.32
2023-01-03T22:56:21.865Z,52.16
2023-01-03T22:58:51.454Z,52.62
2023-01-03T23:01:28.380Z,52.48
2023-01-03T23:04:03.587Z,52.20
2023-01-03T23:06:36.431Z,52.18
2023-01-03T23:09:05.659Z,52.41
2023-01-03T23:11:53.052Z,52.34
2023-01-03T23:14:25.220Z,52.46
2023-01-03T23:16:57.674Z,52.70
2023-01-03T23:19:27.776Z,52.62
2023-01-03T23:21:58.329Z,52.82
2023-01-03T23:24:26.549Z,52.64
2023-01-03T23:26:54.867Z,52.71
2023-01-03T23:29:23.049Z,53.07
2023-01-03T23:31:52.925Z,52.91
2023-01-03T23:34:40.758Z,53.35
2023-01-03T23:37:08.784Z,52.93
2023-01-03T23:39:37.275Z,53.17
2023-01-03T23:42:05.944Z,53.06
2023-01-03T23:44:35.042Z,52.96
2023-01-03T23:47:11.356Z,52.92
2023-01-03T23:49:40.744Z,53.20
2023-01-03T23:52:22.106Z,52.90
2023-01-03T23:54:59.554Z,53.08
2023-01-03T23:57:29.921Z,53.14
2023-01-03T23:59:59.035Z,53.08
